createdAt,value
2023-05-12T00:01:20.108Z,99945.09
2023-05-12T00:03:47.005Z,99945.63
2023-05-12T00:06:14.034Z,99940.03
2023-05-12T00:08:40.590Z,99937.59
2023-05-12T00:11:07.456Z,99935.66
2023-05-12T00:13:34.143Z,99929.66
2023-05-12T00:16:00.865Z,99934.09
2023-05-12T00:18:28.655Z,99930.09
2023-05-12T00:20:57.373Z,99931.81
2023-05-12T00:23:24.093Z,99920.31
2023-05-12T00:25:51.131Z,99928.53
2023-05-12T00:28:18.876Z,99923.44
2023-05-12T00:30:45.513Z,99929.56
2023-05-12T00:33:12.491Z,99930.97
2023-05-12T00:35:39.070Z,99922.31
2023-05-12T00:38:05.637Z,99927.34
2023-05-12T00:40:32.184Z,99916.81
2023-05-12T00:42:58.783Z,99916.94
2023-05-12T00:45:25.386Z,99916.47
2023-05-12T00:47:53.172Z,99920.34
2023-05-12T00:50:20.928Z,99915.16
2023-05-12T00:52:51.900Z,99914.06
2023-05-12T00:55:18.954Z,99916.47
2023-05-12T00:57:45.907Z,99914.25
2023-05-12T01:00:13.037Z,99912.00
2023-05-12T01:02:40.076Z,99914.44
2023-05-12T01:05:07.118Z,99912.94
2023-05-12T01:07:33.837Z,99906.84
2023-05-12T01:10:00.443Z,99910.47
2023-05-12T01:15:02.353Z,99914.03
2023-05-12T01:17:33.272Z,99919.66
2023-05-12T01:20:08.453Z,99921.78
2023-05-12T01:22:36.109Z,99916.06
2023-05-12T01:25:05.422Z,99919.22
2023-05-12T01:28:20.212Z,99909.75
2023-05-12T01:31:04.055Z,99914.31
2023-05-12T01:33:31.351Z,99915.84
2023-05-12T01:35:57.901Z,99915.34
2023-05-12T01:38:24.648Z,99925.44
2023-05-12T01:41:09.720Z,99927.34
2023-05-12T01:43:38.901Z,99931.69
2023-05-12T01:46:05.585Z,99926.53
2023-05-12T01:48:32.135Z,99933.69
2023-05-12T01:51:03.429Z,99931.09
2023-05-12T01:53:29.987Z,99935.69
2023-05-12T01:56:11.890Z,99931.81
2023-05-12T01:58:38.505Z,99941.16
2023-05-12T02:01:05.138Z,99946.41
2023-05-12T02:03:31.963Z,99947.47
2023-05-12T02:06:45.576Z,99938.97
2023-05-12T02:09:58.994Z,99945.31
2023-05-12T02:12:49.946Z,99936.44
2023-05-12T02:15:16.643Z,99947.22
2023-05-12T02:17:43.258Z,99948.44
2023-05-12T02:20:12.277Z,99945.69
2023-05-12T02:22:39.242Z,99948.00
2023-05-12T02:25:06.473Z,99948.56
2023-05-12T02:27:33.003Z,99938.97
2023-05-12T02:29:59.561Z,99944.00
2023-05-12T02:32:28.201Z,99950.81
2023-05-12T02:34:57.940Z,99950.22
2023-05-12T02:38:13.648Z,99958.38
2023-05-12T02:41:18.960Z,99952.75
2023-05-12T02:43:45.514Z,99944.00
2023-05-12T02:46:12.131Z,99949.84
2023-05-12T02:48:38.729Z,99957.03
2023-05-12T02:51:05.481Z,99958.53
2023-05-12T02:53:32.356Z,99946.69
2023-05-12T02:56:11.351Z,99949.41
2023-05-12T02:58:39.377Z,99955.78
2023-05-12T03:04:01.356Z,99949.84
2023-05-12T03:06:56.789Z,99957.56
2023-05-12T03:09:35.475Z,99952.75
2023-05-12T03:12:07.850Z,99949.41
2023-05-12T03:14:34.409Z,99955.41
2023-05-12T03:17:01.015Z,99951.50
2023-05-12T03:19:30.129Z,99951.19
2023-05-12T03:21:56.700Z,99947.13
2023-05-12T03:24:23.344Z,99957.28
2023-05-12T03:26:55.319Z,99954.53
2023-05-12T03:29:22.363Z,99956.91
2023-05-12T03:31:48.961Z,99954.03
2023-05-12T03:34:15.522Z,99955.72
2023-05-12T03:36:50.135Z,99958.28
2023-05-12T03:39:38.837Z,99958.69
2023-05-12T03:42:14.539Z,99966.22
2023-05-12T03:44:41.302Z,99963.19
2023-05-12T03:47:07.900Z,99962.59
2023-05-12T03:49:34.520Z,99953.25
2023-05-12T03:52:01.053Z,99963.19
2023-05-12T03:57:03.763Z,99962.94
2023-05-12T03:59:33.313Z,99967.56
2023-05-12T04:01:59.957Z,99969.13
2023-05-12T04:04:35.365Z,99966.25
2023-05-12T04:07:01.901Z,99970.81
2023-05-12T04:09:46.929Z,99976.41
2023-05-12T04:13:00.290Z,99975.84
2023-05-12T04:15:42.734Z,99975.78
2023-05-12T04:38:41.976Z,99989.44
2023-05-12T04:41:09.231Z,99982.78
2023-05-12T04:46:05.710Z,99984.38
2023-05-12T04:48:34.634Z,99988.69
2023-05-12T04:51:01.294Z,99981.16
2023-05-12T04:53:28.257Z,99983.47
2023-05-12T04:55:56.674Z,99994.16
2023-05-12T04:58:23.423Z,99983.91
2023-05-12T05:00:50.057Z,99988.84
2023-05-12T05:03:16.701Z,99990.06
2023-05-12T05:05:43.366Z,99995.91
2023-05-12T05:08:10.230Z,99986.84
2023-05-12T05:10:37.171Z,99993.25
2023-05-12T05:13:03.694Z,99997.91
2023-05-12T05:15:30.265Z,99991.00
2023-05-12T05:17:56.956Z,99997.94
2023-05-12T05:20:27.863Z,99999.22
2023-05-12T05:22:56.488Z,99989.81
2023-05-12T05:25:23.089Z,99998.22
2023-05-12T05:27:49.758Z,99990.38
2023-05-12T05:30:19.267Z,99995.13
2023-05-12T05:32:48.940Z,99991.00
2023-05-12T05:35:15.786Z,99994.06
2023-05-12T05:37:42.735Z,99998.31
2023-05-12T05:40:11.274Z,99997.62
2023-05-12T05:42:37.905Z,100000.00
2023-05-12T05:47:39.747Z,100017.75
2023-05-12T05:50:06.911Z,100010.97
2023-05-12T05:52:33.464Z,100013.34
2023-05-12T05:56:07.243Z,100019.84
2023-05-12T05:59:03.172Z,100018.59
2023-05-12T06:01:34.666Z,100016.87
2023-05-12T06:06:36.497Z,100023.34
2023-05-12T06:09:03.085Z,100021.22
2023-05-12T06:11:29.621Z,100024.66
2023-05-12T06:13:56.236Z,100014.72
2023-05-12T06:16:22.909Z,100014.53
2023-05-12T06:18:49.598Z,100026.41
2023-05-12T06:21:16.219Z,100025.91
2023-05-12T06:23:42.774Z,100021.28
2023-05-12T06:26:09.637Z,100022.84
2023-05-12T06:29:00.452Z,100025.00
2023-05-12T06:31:27.234Z,100026.69
2023-05-12T06:33:53.841Z,100034.13
2023-05-12T06:36:20.536Z,100029.06
2023-05-12T06:38:47.092Z,100021.94
2023-05-12T06:42:03.263Z,100021.81
2023-05-12T06:44:54.525Z,100022.16
2023-05-12T06:47:21.143Z,100021.22
2023-05-12T06:49:47.976Z,100024.22
2023-05-12T06:52:14.514Z,100021.75
2023-05-12T06:54:41.025Z,100025.78
2023-05-12T06:57:07.631Z,100017.91
2023-05-12T06:59:34.488Z,100031.28
2023-05-12T07:02:01.325Z,100026.03
2023-05-12T07:04:28.025Z,100030.94
2023-05-12T07:06:54.619Z,100025.34
2023-05-12T07:09:21.215Z,100027.16
2023-05-12T07:11:48.279Z,100029.19
2023-05-12T07:14:14.920Z,100028.34
2023-05-12T07:16:41.483Z,100032.28
2023-05-12T07:19:09.602Z,100030.19
2023-05-12T07:21:37.382Z,100022.06
2023-05-12T07:24:06.041Z,100029.06
2023-05-12T07:26:32.683Z,100015.62
2023-05-12T07:29:00.842Z,100022.03
2023-05-12T07:31:27.999Z,100022.81
2023-05-12T07:33:54.796Z,100030.50
2023-05-12T07:36:22.053Z,100021.84
2023-05-12T07:38:48.913Z,100021.94
2023-05-12T07:41:15.524Z,100021.47
2023-05-12T07:43:42.074Z,100029.44
2023-05-12T07:46:08.667Z,100027.37
2023-05-12T07:48:39.952Z,100023.78
2023-05-12T07:51:07.931Z,100023.59
2023-05-12T07:53:34.750Z,100026.66
2023-05-12T07:56:01.838Z,100028.28
2023-05-12T07:58:28.434Z,100031.47
2023-05-12T08:00:55.023Z,100029.19
2023-05-12T08:03:21.650Z,100030.87
2023-05-12T08:05:48.253Z,100030.97
2023-05-12T08:08:16.783Z,100040.06
2023-05-12T08:10:44.306Z,100043.41
2023-05-12T08:13:10.893Z,100034.78
2023-05-12T08:15:37.424Z,100035.72
2023-05-12T08:18:04.231Z,100043.09
2023-05-12T08:20:31.555Z,100044.09
2023-05-12T08:22:58.074Z,100043.94
2023-05-12T08:25:25.035Z,100043.38
2023-05-12T08:27:51.601Z,100045.19
2023-05-12T08:30:18.546Z,100044.66
2023-05-12T08:32:45.120Z,100047.41
2023-05-12T08:35:11.687Z,100046.81
2023-05-12T08:37:38.337Z,100048.16
2023-05-12T08:40:31.692Z,100044.47
2023-05-12T08:43:26.036Z,100044.59
2023-05-12T08:46:00.124Z,100055.59
2023-05-12T08:48:29.361Z,100057.19
2023-05-12T08:50:57.899Z,100060.06
2023-05-12T08:53:27.777Z,100050.91
2023-05-12T08:57:09.815Z,100051.50
2023-05-12T08:58:43.052Z,100065.56
2023-05-12T09:01:12.117Z,100071.03
2023-05-12T09:03:39.088Z,100071.75
2023-05-12T09:06:07.236Z,100079.72
2023-05-12T09:08:35.800Z,100081.09
2023-05-12T09:11:02.764Z,100084.22
2023-05-12T09:13:52.573Z,100088.81
2023-05-12T09:16:23.820Z,100084.09
2023-05-12T09:18:52.975Z,100080.91
2023-05-12T09:21:20.019Z,100088.97
2023-05-12T09:24:07.365Z,100093.59
2023-05-12T09:26:54.119Z,100090.06
2023-05-12T09:29:31.310Z,100082.41
2023-05-12T09:32:02.870Z,100090.66
2023-05-12T09:34:41.239Z,100101.25
2023-05-12T09:37:08.573Z,100102.69
2023-05-12T09:39:36.590Z,100115.66
2023-05-12T09:42:03.427Z,100100.69
2023-05-12T09:44:32.353Z,100106.25
2023-05-12T09:47:29.429Z,100113.59
2023-05-12T09:50:16.301Z,100102.38
2023-05-12T09:52:42.981Z,100102.97
2023-05-12T09:55:12.194Z,100106.47
2023-05-12T09:57:45.718Z,100096.38
2023-05-12T10:03:57.552Z,100097.94
2023-05-12T10:06:32.224Z,100094.00
2023-05-12T10:09:06.415Z,100096.09
2023-05-12T10:11:33.561Z,100089.81
2023-05-12T10:14:09.639Z,100093.31
2023-05-12T10:16:36.867Z,100085.81
2023-05-12T10:19:04.560Z,100083.56
2023-05-12T10:21:32.089Z,100085.63
2023-05-12T10:23:59.358Z,100081.81
2023-05-12T10:26:27.402Z,100084.69
2023-05-12T10:28:54.207Z,100088.44
2023-05-12T10:31:22.330Z,100098.13
2023-05-12T10:34:00.216Z,100099.62
2023-05-12T10:36:26.949Z,100094.81
2023-05-12T10:38:54.779Z,100101.97
2023-05-12T10:41:32.796Z,100100.78
2023-05-12T10:43:59.740Z,100105.22
2023-05-12T10:46:27.221Z,100108.59
2023-05-12T10:48:57.855Z,100108.31
2023-05-12T10:51:28.294Z,100108.31
2023-05-12T10:54:03.857Z,100101.97
2023-05-12T10:56:51.427Z,100107.88
2023-05-12T10:59:20.647Z,100109.22
2023-05-12T11:02:05.124Z,100102.84
2023-05-12T11:04:50.605Z,100101.63
2023-05-12T11:07:24.495Z,100108.16
2023-05-12T11:09:58.267Z,100105.94
2023-05-12T11:12:29.421Z,100102.28
2023-05-12T11:14:56.018Z,100107.03
2023-05-12T11:17:22.651Z,100108.59
2023-05-12T11:19:51.028Z,100102.97
2023-05-12T11:22:22.512Z,100107.81
2023-05-12T11:24:51.195Z,100107.75
2023-05-12T11:27:20.491Z,100101.34
2023-05-12T11:30:08.239Z,100106.06
2023-05-12T11:32:34.825Z,100109.56
2023-05-12T11:35:10.570Z,100110.12
2023-05-12T11:37:39.798Z,100107.94
2023-05-12T11:40:31.267Z,100107.03
2023-05-12T11:43:20.266Z,100104.75
2023-05-12T11:45:49.690Z,100098.69
2023-05-12T11:48:16.886Z,100096.59
2023-05-12T11:50:47.626Z,100100.47
2023-05-12T11:53:17.409Z,100093.91
2023-05-12T11:55:55.008Z,100096.53
2023-05-12T11:58:30.718Z,100098.41
2023-05-12T12:01:08.301Z,100103.53
2023-05-12T12:03:48.970Z,100099.62
2023-05-12T12:06:16.536Z,100115.97
2023-05-12T12:09:26.030Z,100113.50
2023-05-12T12:12:45.929Z,100109.72
2023-05-12T12:15:13.107Z,100106.06
2023-05-12T12:17:40.518Z,100109.88
2023-05-12T12:20:09.011Z,100115.09
2023-05-12T12:22:36.162Z,100114.31
2023-05-12T12:25:03.883Z,100109.62
2023-05-12T12:27:45.798Z,100115.37
2023-05-12T12:30:13.223Z,100127.34
2023-05-12T12:32:39.813Z,100123.41
2023-05-12T12:35:06.889Z,100122.03
2023-05-12T12:37:33.503Z,100127.38
2023-05-12T12:40:44.005Z,100130.53
2023-05-12T12:43:22.939Z,100127.06
2023-05-12T12:45:49.636Z,100118.75
2023-05-12T12:48:16.230Z,100118.72
2023-05-12T12:50:42.793Z,100121.56
2023-05-12T12:53:09.811Z,100121.28
2023-05-12T12:55:36.784Z,100122.47
2023-05-12T13:03:34.762Z,100125.72
2023-05-12T13:06:01.332Z,100128.47
2023-05-12T13:08:33.682Z,100132.09
2023-05-12T13:11:00.779Z,100133.66
2023-05-12T13:16:56.335Z,100137.22
2023-05-12T13:19:22.990Z,100134.34
2023-05-12T13:21:49.748Z,100142.50
2023-05-12T13:24:16.643Z,100131.97
2023-05-12T13:26:43.217Z,100132.78
2023-05-12T13:29:09.817Z,100134.19
2023-05-12T13:37:47.622Z,100134.09
2023-05-12T13:43:13.342Z,100131.87
2023-05-12T13:45:40.160Z,100140.03
2023-05-12T13:50:51.645Z,100138.72
2023-05-12T13:53:18.228Z,100141.00
2023-05-12T13:55:45.084Z,100147.00
2023-05-12T14:06:59.518Z,100152.72
2023-05-12T14:09:26.187Z,100150.66
2023-05-12T14:17:09.743Z,100153.81
2023-05-12T14:19:36.327Z,100162.44
2023-05-12T14:22:05.900Z,100164.59
2023-05-12T14:24:36.575Z,100163.56
2023-05-12T14:27:03.461Z,100164.81
2023-05-12T14:29:32.894Z,100161.06
2023-05-12T14:31:59.952Z,100174.09
2023-05-12T14:34:26.607Z,100173.47
2023-05-12T14:36:54.155Z,100167.84
2023-05-12T14:39:20.817Z,100179.53
2023-05-12T14:41:47.394Z,100178.38
2023-05-12T14:44:14.270Z,100179.03
2023-05-12T14:46:40.808Z,100190.56
2023-05-12T14:49:10.999Z,100190.50
2023-05-12T14:51:41.536Z,100192.84
2023-05-12T14:54:21.895Z,100189.50
2023-05-12T14:56:51.178Z,100188.00
2023-05-12T14:59:17.723Z,100190.56
2023-05-12T15:01:44.415Z,100188.19
2023-05-12T15:04:11.015Z,100192.44
2023-05-12T15:06:38.134Z,100191.62
2023-05-12T15:09:05.022Z,100186.78
2023-05-12T15:11:31.617Z,100195.41
2023-05-12T15:13:58.227Z,100193.00
2023-05-12T15:16:26.222Z,100188.38
2023-05-12T15:18:52.920Z,100195.41
2023-05-12T15:21:19.444Z,100190.25
2023-05-12T15:23:46.003Z,100191.00
2023-05-12T15:26:27.114Z,100194.03
2023-05-12T15:28:58.327Z,100192.94
2023-05-12T15:31:28.244Z,100195.75
2023-05-12T15:33:56.648Z,100189.87
2023-05-12T15:36:23.276Z,100204.50
2023-05-12T15:38:49.866Z,100192.41
2023-05-12T15:41:16.474Z,100195.97
2023-05-12T15:43:43.014Z,100197.97
2023-05-12T15:46:11.025Z,100194.66
2023-05-12T15:48:37.866Z,100190.03
2023-05-12T15:51:04.968Z,100184.69
2023-05-12T15:53:31.720Z,100190.09
2023-05-12T15:56:05.600Z,100193.44
2023-05-12T15:58:32.370Z,100187.94
2023-05-12T16:00:59.516Z,100188.97
2023-05-12T16:03:26.430Z,100200.84
2023-05-12T16:05:53.419Z,100198.91
2023-05-12T16:08:20.442Z,100190.69
2023-05-12T16:10:47.190Z,100205.03
2023-05-12T16:13:14.481Z,100196.69
2023-05-12T16:15:41.079Z,100194.47
2023-05-12T16:18:10.916Z,100196.37
2023-05-12T16:20:38.817Z,100200.69
2023-05-12T16:23:05.465Z,100200.59
2023-05-12T16:25:32.012Z,100207.81
2023-05-12T16:27:58.552Z,100202.69
2023-05-12T16:30:25.106Z,100205.94
2023-05-12T16:32:51.799Z,100207.13
2023-05-12T16:35:19.076Z,100204.00
2023-05-12T16:37:45.960Z,100201.19
2023-05-12T16:40:13.041Z,100200.31
2023-05-12T16:42:39.585Z,100204.91
2023-05-12T16:45:08.863Z,100205.66
2023-05-12T16:47:35.536Z,100204.50
2023-05-12T16:50:08.178Z,100202.94
2023-05-12T16:52:34.833Z,100207.66
2023-05-12T16:55:01.398Z,100216.72
2023-05-12T16:57:28.000Z,100212.25
2023-05-12T16:59:54.509Z,100216.34
2023-05-12T17:02:21.120Z,100213.81
2023-05-12T17:04:47.991Z,100217.66
2023-05-12T17:07:14.715Z,100215.78
2023-05-12T17:09:41.329Z,100216.25
2023-05-12T17:12:08.537Z,100219.81
2023-05-12T17:14:35.238Z,100221.09
2023-05-12T17:17:02.306Z,100219.03
2023-05-12T17:19:29.251Z,100220.53
2023-05-12T17:21:55.942Z,100226.19
2023-05-12T17:24:22.477Z,100223.66
2023-05-12T17:26:49.259Z,100223.03
2023-05-12T17:29:16.028Z,100227.06
2023-05-12T17:31:43.034Z,100224.34
2023-05-12T17:34:09.737Z,100227.50
2023-05-12T17:36:36.396Z,100234.22
2023-05-12T17:39:03.586Z,100239.09
2023-05-12T17:41:30.432Z,100248.09
2023-05-12T17:43:57.144Z,100238.09
2023-05-12T17:46:23.808Z,100242.28
2023-05-12T17:48:50.712Z,100251.66
2023-05-12T17:51:18.213Z,100247.34
2023-05-12T17:53:44.753Z,100254.72
2023-05-12T17:56:11.601Z,100248.59
2023-05-12T17:58:38.508Z,100249.84
2023-05-12T18:01:05.217Z,100252.97
2023-05-12T18:03:31.868Z,100259.06
2023-05-12T18:05:58.456Z,100246.81
2023-05-12T18:08:25.042Z,100249.97
2023-05-12T18:10:51.856Z,100258.06
2023-05-12T18:13:18.732Z,100254.59
2023-05-12T18:15:45.262Z,100253.41
2023-05-12T18:18:12.503Z,100250.34
2023-05-12T18:20:39.169Z,100257.53
2023-05-12T18:23:05.803Z,100260.00
2023-05-12T18:25:32.441Z,100256.16
2023-05-12T18:27:59.058Z,100259.75
2023-05-12T18:30:25.718Z,100249.41
2023-05-12T18:32:52.380Z,100257.78
2023-05-12T18:35:19.756Z,100264.28
2023-05-12T18:37:46.568Z,100253.47
2023-05-12T18:40:13.210Z,100255.03
2023-05-12T18:42:39.877Z,100268.47
2023-05-12T18:45:07.084Z,100269.03
2023-05-12T18:47:34.408Z,100281.78
2023-05-12T18:50:01.582Z,100270.13
2023-05-12T18:52:28.099Z,100271.47
2023-05-12T18:54:54.661Z,100275.88
2023-05-12T18:57:21.664Z,100282.78
2023-05-12T18:59:48.366Z,100282.47
2023-05-12T19:02:30.384Z,100285.53
2023-05-12T19:04:59.026Z,100294.00
2023-05-12T19:07:25.652Z,100297.59
2023-05-12T19:09:52.177Z,100296.72
2023-05-12T19:13:05.409Z,100297.56
2023-05-12T19:19:26.498Z,100302.91
2023-05-12T19:27:30.720Z,100309.00
2023-05-12T19:29:57.674Z,100307.00
2023-05-12T19:32:34.450Z,100305.81
2023-05-12T19:35:01.146Z,100306.88
2023-05-12T19:37:27.879Z,100310.59
2023-05-12T19:39:54.421Z,100310.50
2023-05-12T19:43:00.519Z,100312.16
2023-05-12T19:45:58.291Z,100315.37
2023-05-12T19:48:24.952Z,100313.34
2023-05-12T19:50:54.107Z,100322.34
2023-05-12T19:53:20.958Z,100314.94
2023-05-12T19:55:47.514Z,100319.41
2023-05-12T19:58:14.040Z,100323.50
2023-05-12T20:00:41.222Z,100320.97
2023-05-12T20:03:08.217Z,100322.06
2023-05-12T20:05:36.574Z,100322.31
2023-05-12T20:08:03.376Z,100319.88
2023-05-12T20:10:30.096Z,100330.53
2023-05-12T20:12:56.744Z,100319.56
2023-05-12T20:15:23.458Z,100322.88
2023-05-12T20:17:50.172Z,100315.44
2023-05-12T20:20:16.751Z,100317.28
2023-05-12T20:22:43.352Z,100312.03
2023-05-12T20:25:12.402Z,100309.88
2023-05-12T20:27:38.965Z,100315.09
2023-05-12T20:30:06.414Z,100317.91
2023-05-12T20:32:33.093Z,100315.03
2023-05-12T20:34:59.746Z,100319.97
2023-05-12T20:37:26.317Z,100322.31
2023-05-12T20:39:54.072Z,100315.59
2023-05-12T20:42:20.698Z,100316.09
2023-05-12T20:44:47.397Z,100317.12
2023-05-12T20:47:13.997Z,100308.25
2023-05-12T20:49:40.999Z,100306.69
2023-05-12T20:52:07.852Z,100308.31
2023-05-12T20:54:34.409Z,100299.97
2023-05-12T20:57:01.070Z,100323.38
2023-05-12T20:59:27.612Z,100314.22
2023-05-12T21:01:56.466Z,100306.62
2023-05-12T21:04:23.189Z,100315.97
2023-05-12T21:06:51.513Z,100309.94
2023-05-12T21:09:20.174Z,100316.53
2023-05-12T21:11:47.252Z,100303.47
2023-05-12T21:14:14.061Z,100318.34
2023-05-12T21:16:40.758Z,100315.44
2023-05-12T21:19:09.237Z,100316.72
2023-05-12T21:21:36.094Z,100321.63
2023-05-12T21:24:02.708Z,100316.00
2023-05-12T21:26:29.354Z,100319.94
2023-05-12T21:28:56.218Z,100323.78
2023-05-12T21:31:22.837Z,100320.59
2023-05-12T21:33:49.574Z,100321.81
2023-05-12T21:36:16.103Z,100324.13
2023-05-12T21:38:42.773Z,100325.69
2023-05-12T21:41:09.356Z,100319.78
2023-05-12T21:43:35.928Z,100324.44
2023-05-12T21:46:04.072Z,100317.84
2023-05-12T21:48:32.065Z,100322.06
2023-05-12T21:51:02.875Z,100326.69
2023-05-12T21:53:29.625Z,100320.00
2023-05-12T21:55:56.279Z,100321.31
2023-05-12T21:58:23.750Z,100326.56
2023-05-12T22:00:53.637Z,100320.16
2023-05-12T22:03:21.826Z,100322.13
2023-05-12T22:05:48.727Z,100315.19
2023-05-12T22:08:16.323Z,100321.25
2023-05-12T22:10:43.843Z,100323.81
2023-05-12T22:13:10.557Z,100319.50
2023-05-12T22:15:37.215Z,100322.13
2023-05-12T22:18:03.937Z,100318.69
2023-05-12T22:20:30.521Z,100318.56
2023-05-12T22:22:57.632Z,100318.41
2023-05-12T22:25:24.347Z,100318.47
2023-05-12T22:27:50.941Z,100317.84
2023-05-12T22:30:18.857Z,100324.00
2023-05-12T22:35:41.605Z,100314.16
2023-05-12T22:38:10.576Z,100311.06
2023-05-12T22:46:20.468Z,100310.25
2023-05-12T22:52:37.706Z,100314.56
2023-05-12T22:55:04.769Z,100312.41
2023-05-12T23:00:07.358Z,100313.22
2023-05-12T23:02:36.017Z,100314.84
2023-05-12T23:05:04.024Z,100304.34
2023-05-12T23:07:30.601Z,100306.50
2023-05-12T23:09:57.164Z,100305.50
2023-05-12T23:12:23.741Z,100300.31
2023-05-12T23:14:50.838Z,100303.69
2023-05-12T23:17:17.416Z,100293.38
2023-05-12T23:19:44.037Z,100297.97
2023-05-12T23:24:46.014Z,100298.31
2023-05-12T23:27:12.586Z,100295.97
2023-05-12T23:29:39.171Z,100291.28
2023-05-12T23:32:06.204Z,100288.81
2023-05-12T23:34:32.867Z,100294.72
2023-05-12T23:37:37.543Z,100287.13
2023-05-12T23:40:29.186Z,100289.88
2023-05-12T23:42:55.726Z,100289.75
2023-05-12T23:47:57.934Z,100285.91
2023-05-12T23:50:24.862Z,100285.47
2023-05-12T23:52:56.458Z,100280.38
2023-05-12T23:55:38.564Z,100281.97
2023-05-12T23:58:05.160Z,100293.25
